Time;durP1;ratioP1;P1;durP2;ratioP2;P2;SDS_P1;SDS_P2;PMS_P1;PMS_P2;Temp;Humidity;BMP_temperature;BMP_pressure;BME280_temperature;BME280_humidity;BME280_pressure;Samples;Min_cycle;Max_cycle;Signal;HPM_P1;HPM_P2
2021/11/18 00:00:19;;;;;;;24.70;9.43;;;7.60;94.00;;;;;;4974626;28;20217;-66
2021/11/18 00:02:44;;;;;;;;;;;7.50;93.90;;;;;;4963130;28;20745;-66
2021/11/18 00:05:12;;;;;;;20.67;8.97;;;7.50;94.00;;;;;;4966320;28;19918;-66
2021/11/18 00:07:45;;;;;;;21.25;9.23;;;7.40;94.20;;;;;;4965490;28;20093;-66
2021/11/18 00:10:16;;;;;;;24.52;9.88;;;7.40;94.20;;;;;;4974233;28;20702;-67
2021/11/18 00:12:43;;;;;;;24.20;10.15;;;7.40;94.10;;;;;;4969860;28;20068;-67
2021/11/18 00:15:09;;;;;;;27.63;10.35;;;7.40;94.30;;;;;;4970304;28;20682;-66
2021/11/18 00:17:35;;;;;;;22.98;9.60;;;7.40;94.40;;;;;;4971519;28;20042;-66
2021/11/18 00:20:04;;;;;;;27.13;10.35;;;7.30;94.20;;;;;;4968163;28;20051;-65
2021/11/18 00:22:30;;;;;;;26.75;10.48;;;7.40;94.30;;;;;;4968569;28;20451;-66
2021/11/18 00:24:56;;;;;;;26.27;9.43;;;7.40;94.30;;;;;;4969782;28;20093;-66
2021/11/18 00:27:22;;;;;;;24.00;9.88;;;7.40;94.30;;;;;;4966574;28;20048;-67
2021/11/18 00:29:50;;;;;;;29.23;10.50;;;7.40;94.30;;;;;;4964661;28;20502;-66
2021/11/18 00:32:16;;;;;;;22.88;9.32;;;7.40;94.20;;;;;;4973160;28;20042;-67
2021/11/18 00:34:42;;;;;;;29.00;10.18;;;7.30;94.20;;;;;;4969975;28;20034;-66
2021/11/18 00:37:08;;;;;;;23.08;9.32;;;7.30;94.30;;;;;;4967083;28;20027;-66
2021/11/18 00:39:34;;;;;;;25.05;10.32;;;7.30;94.30;;;;;;4987266;28;20030;-66
2021/11/18 00:42:00;;;;;;;23.73;9.52;;;7.20;94.20;;;;;;4975031;28;20513;-65
2021/11/18 00:44:26;;;;;;;24.70;10.38;;;7.20;94.20;;;;;;4974141;28;20081;-65
2021/11/18 00:46:52;;;;;;;24.15;9.68;;;7.20;94.40;;;;;;4966790;28;20045;-65
2021/11/18 00:49:20;;;;;;;30.65;10.13;;;7.20;94.40;;;;;;4968213;28;20597;-65
2021/11/18 00:51:46;;;;;;;26.55;10.38;;;7.20;94.60;;;;;;4970781;28;20050;-66
2021/11/18 00:54:11;;;;;;;28.67;10.75;;;7.20;94.50;;;;;;4970927;28;20080;-65
2021/11/18 00:56:37;;;;;;;28.13;10.15;;;7.10;94.40;;;;;;4970490;28;20693;-66
2021/11/18 00:59:07;;;;;;;25.13;10.02;;;7.10;94.60;;;;;;4971429;28;20509;-65
2021/11/18 01:01:41;;;;;;;32.83;11.88;;;7.10;94.50;;;;;;4973277;28;20035;-66
2021/11/18 01:04:09;;;;;;;24.23;9.90;;;7.10;94.70;;;;;;4978055;28;20041;-66
2021/11/18 01:06:34;;;;;;;27.75;10.80;;;7.00;94.60;;;;;;4988516;28;20034;-66
2021/11/18 01:09:00;;;;;;;31.90;12.25;;;7.00;94.60;;;;;;4973488;28;20039;-66
2021/11/18 01:11:30;;;;;;;30.20;10.57;;;7.00;94.70;;;;;;4972537;28;20495;-65
2021/11/18 01:13:59;;;;;;;22.92;10.23;;;7.00;94.70;;;;;;4967738;28;20023;-65
2021/11/18 01:16:27;;;;;;;22.42;9.80;;;7.00;94.60;;;;;;4971468;28;20030;-66
2021/11/18 01:18:53;;;;;;;24.55;9.73;;;7.00;94.70;;;;;;4970789;28;20164;-65
2021/11/18 01:21:20;;;;;;;25.67;10.02;;;7.00;94.70;;;;;;4969691;28;20045;-65
2021/11/18 01:23:47;;;;;;;20.02;9.43;;;7.00;94.70;;;;;;4982892;28;20065;-65
2021/11/18 01:26:16;;;;;;;25.67;10.55;;;6.90;94.60;;;;;;4969087;28;20069;-65
2021/11/18 01:28:42;;;;;;;21.17;9.02;;;6.90;94.70;;;;;;4969657;28;20792;-66
2021/11/18 01:31:10;;;;;;;24.90;10.27;;;6.90;94.70;;;;;;4971226;28;20054;-64
2021/11/18 01:33:37;;;;;;;24.60;9.52;;;6.90;94.80;;;;;;4967494;28;20031;-64
2021/11/18 01:36:03;;;;;;;25.42;10.27;;;6.90;94.80;;;;;;4985844;28;20904;-64
2021/11/18 01:38:32;;;;;;;27.05;9.18;;;6.90;94.70;;;;;;4981927;28;20678;-66
2021/11/18 01:41:26;;;;;;;27.13;9.55;;;6.90;94.70;;;;;;4968694;28;20096;-66
2021/11/18 01:43:55;;;;;;;26.77;9.85;;;6.90;94.80;;;;;;4982948;28;20027;-67
2021/11/18 01:46:25;;;;;;;30.90;11.00;;;6.90;94.70;;;;;;4982957;28;20046;-66
2021/11/18 01:48:53;;;;;;;22.70;9.23;;;6.90;95.00;;;;;;4970172;28;20037;-67
2021/11/18 01:51:23;;;;;;;24.42;10.23;;;6.80;95.00;;;;;;4986064;28;20126;-66
2021/11/18 01:53:50;;;;;;;31.40;10.07;;;6.80;95.00;;;;;;4975528;28;20414;-66
2021/11/18 01:56:23;;;;;;;32.72;10.93;;;6.90;95.00;;;;;;4982032;28;20035;-66
2021/11/18 01:58:58;;;;;;;28.45;11.13;;;6.90;95.00;;;;;;4967686;28;20027;-66
2021/11/18 02:01:41;;;;;;;26.85;9.90;;;6.90;94.90;;;;;;4973663;28;20105;-65
2021/11/18 02:04:17;;;;;;;30.60;9.65;;;6.90;94.90;;;;;;4967507;28;20042;-66
2021/11/18 02:07:00;;;;;;;24.92;10.30;;;6.90;94.90;;;;;;4969389;28;20840;-65
2021/11/18 02:09:28;;;;;;;24.15;10.13;;;7.00;95.00;;;;;;4967729;28;21520;-65
2021/11/18 02:12:10;;;;;;;25.75;10.02;;;7.10;94.90;;;;;;4988630;28;20026;-65
2021/11/18 02:14:36;;;;;;;;;;;7.10;94.80;;;;;;4977698;28;20757;-64
2021/11/18 02:17:03;;;;;;;32.92;11.50;;;7.00;94.80;;;;;;4969027;28;19914;-65
2021/11/18 02:19:36;;;;;;;28.10;11.05;;;7.10;94.90;;;;;;4980611;28;20031;-67
2021/11/18 02:22:03;;;;;;;30.85;10.77;;;7.20;94.80;;;;;;4985586;28;20030;-65
2021/11/18 02:24:35;;;;;;;32.67;10.98;;;7.30;94.60;;;;;;4968979;28;20050;-65
2021/11/18 02:27:03;;;;;;;29.67;10.75;;;7.30;94.50;;;;;;4963860;28;20039;-64
2021/11/18 02:29:28;;;;;;;24.15;10.55;;;7.20;94.40;;;;;;4973794;28;20045;-65
2021/11/18 02:32:00;;;;;;;27.73;10.10;;;7.20;94.40;;;;;;4982204;28;20030;-66
2021/11/18 02:34:41;;;;;;;21.75;10.13;;;7.20;94.40;;;;;;4968085;28;20039;-66
2021/11/18 02:37:08;;;;;;;25.05;9.85;;;7.20;94.40;;;;;;4971345;28;20134;-64
2021/11/18 02:39:34;;;;;;;30.35;10.27;;;7.10;94.30;;;;;;4964576;28;20037;-66
2021/11/18 02:42:04;;;;;;;26.02;10.13;;;7.10;94.50;;;;;;4984866;28;20080;-65
2021/11/18 02:44:31;;;;;;;26.17;9.85;;;7.10;94.70;;;;;;4970959;28;20045;-64
2021/11/18 02:46:58;;;;;;;26.27;10.60;;;7.00;94.70;;;;;;4968078;28;20546;-67
2021/11/18 02:49:24;;;;;;;28.30;10.18;;;7.00;94.80;;;;;;4967528;28;20738;-68
2021/11/18 02:51:50;;;;;;;35.53;11.25;;;7.00;94.70;;;;;;4977088;28;20049;-65
2021/11/18 02:54:17;;;;;;;28.33;11.38;;;7.10;94.90;;;;;;4971465;28;20030;-67
2021/11/18 02:56:43;;;;;;;31.73;10.57;;;7.20;94.80;;;;;;4971212;28;20155;-66
2021/11/18 02:59:08;;;;;;;33.88;11.40;;;7.30;94.70;;;;;;4976333;28;20841;-66
2021/11/18 03:01:39;;;;;;;27.80;10.30;;;7.40;94.60;;;;;;4968284;28;20069;-66
2021/11/18 03:04:05;;;;;;;25.15;9.27;;;7.60;94.40;;;;;;4964183;28;20411;-66
2021/11/18 03:06:31;;;;;;;29.80;10.40;;;7.70;94.20;;;;;;4963306;28;20039;-66
2021/11/18 03:08:57;;;;;;;32.65;10.43;;;7.80;94.00;;;;;;4971823;28;20031;-66
2021/11/18 03:11:27;;;;;;;28.88;9.73;;;7.80;93.80;;;;;;4985374;28;20026;-65
2021/11/18 03:13:54;;;;;;;20.85;8.65;;;7.80;93.60;;;;;;4966561;28;20038;-65
2021/11/18 03:16:22;;;;;;;22.20;9.27;;;7.70;93.60;;;;;;4974613;28;20059;-65
2021/11/18 03:18:48;;;;;;;29.67;9.40;;;7.70;93.60;;;;;;4980429;28;20513;-66
2021/11/18 03:21:17;;;;;;;29.30;10.35;;;7.60;93.70;;;;;;4969295;28;20027;-66
2021/11/18 03:23:49;;;;;;;27.55;9.57;;;7.50;93.80;;;;;;4966573;28;20030;-65
2021/11/18 03:26:18;;;;;;;23.00;8.98;;;7.50;94.00;;;;;;4975725;28;20045;-66
2021/11/18 03:28:45;;;;;;;30.67;9.98;;;7.50;94.00;;;;;;4981333;28;20104;-65
2021/11/18 03:31:13;;;;;;;28.38;9.40;;;7.50;94.00;;;;;;4966816;28;20820;-65
2021/11/18 03:33:51;;;;;;;24.35;8.88;;;7.40;94.20;;;;;;4973363;28;20046;-66
2021/11/18 03:36:20;;;;;;;27.65;9.13;;;7.40;94.30;;;;;;4971295;28;20034;-65
2021/11/18 03:38:50;;;;;;;23.02;8.57;;;7.40;94.30;;;;;;4967721;28;20145;-61
2021/11/18 03:41:26;;;;;;;22.63;9.17;;;7.40;94.30;;;;;;4977805;28;20707;-61
2021/11/18 03:43:59;;;;;;;25.15;9.90;;;7.50;94.30;;;;;;4973587;28;20129;-61
2021/11/18 03:46:28;;;;;;;26.52;8.18;;;7.50;94.20;;;;;;4970099;28;20039;-61
2021/11/18 03:48:54;;;;;;;25.95;9.90;;;7.50;94.10;;;;;;4964236;28;20066;-61
2021/11/18 03:51:21;;;;;;;27.23;9.60;;;7.40;94.20;;;;;;4961516;28;20035;-61
2021/11/18 03:53:47;;;;;;;29.80;10.35;;;7.40;94.30;;;;;;4974502;28;20046;-61
2021/11/18 03:56:17;;;;;;;28.10;9.20;;;7.40;94.30;;;;;;4979183;28;20027;-61
2021/11/18 03:58:44;;;;;;;33.33;9.75;;;7.40;94.30;;;;;;4984410;28;20140;-61
2021/11/18 04:01:13;;;;;;;24.65;9.13;;;7.40;94.30;;;;;;4990127;28;20393;-61
2021/11/18 04:03:39;;;;;;;25.23;9.10;;;7.40;94.40;;;;;;4973834;28;20030;-61
2021/11/18 04:06:06;;;;;;;24.85;9.52;;;7.50;94.30;;;;;;4973177;28;20046;-60
2021/11/18 04:08:47;;;;;;;27.83;9.63;;;7.50;94.00;;;;;;4973651;28;20041;-61
2021/11/18 04:11:13;;;;;;;28.65;9.02;;;7.50;94.10;;;;;;4994402;28;20042;-61
2021/11/18 04:13:39;;;;;;;25.85;9.25;;;7.40;94.10;;;;;;4992359;28;20030;-60
2021/11/18 04:16:07;;;;;;;27.13;8.77;;;7.40;94.00;;;;;;4970534;28;20046;-61
2021/11/18 04:18:34;;;;;;;21.77;7.85;;;7.40;94.00;;;;;;4966858;28;20142;-61
2021/11/18 04:21:02;;;;;;;27.25;8.65;;;7.40;94.00;;;;;;4978466;28;20075;-61
2021/11/18 04:23:29;;;;;;;23.27;8.10;;;7.40;94.00;;;;;;4981752;28;20034;-61
2021/11/18 04:25:56;;;;;;;23.98;8.10;;;7.40;94.00;;;;;;4987202;28;20031;-61
2021/11/18 04:28:23;;;;;;;22.50;8.75;;;7.40;94.00;;;;;;4976630;28;20065;-61
2021/11/18 04:30:59;;;;;;;21.77;8.98;;;7.30;94.00;;;;;;4977467;28;20038;-61
2021/11/18 04:33:30;;;;;;;18.13;8.02;;;7.40;94.00;;;;;;4972657;28;20066;-60
2021/11/18 04:35:57;;;;;;;22.27;8.18;;;7.40;93.90;;;;;;4982745;28;20656;-60
2021/11/18 04:38:26;;;;;;;24.50;8.32;;;7.30;94.20;;;;;;4966868;28;20034;-60
2021/11/18 04:40:52;;;;;;;25.08;7.68;;;7.30;94.10;;;;;;4975721;28;20030;-62
2021/11/18 04:43:19;;;;;;;26.95;7.95;;;7.40;94.10;;;;;;4967720;28;20816;-61
2021/11/18 04:45:48;;;;;;;22.00;6.65;;;7.40;94.10;;;;;;4973474;28;20045;-61
2021/11/18 04:48:14;;;;;;;22.55;7.75;;;7.40;94.00;;;;;;4979090;28;20038;-62
2021/11/18 04:50:40;;;;;;;22.23;7.20;;;7.40;94.30;;;;;;4990706;28;20548;-61
2021/11/18 04:53:08;;;;;;;22.65;7.63;;;7.40;94.00;;;;;;4970391;28;20486;-61
2021/11/18 04:55:35;;;;;;;21.20;8.45;;;7.40;93.90;;;;;;4970116;28;20870;-61
2021/11/18 04:58:02;;;;;;;18.75;8.15;;;7.40;93.90;;;;;;4960061;28;20379;-61
2021/11/18 05:00:31;;;;;;;23.77;8.27;;;7.40;93.90;;;;;;4971455;28;20038;-61
2021/11/18 05:02:57;;;;;;;21.23;7.65;;;7.30;93.90;;;;;;4953383;28;20034;-61
2021/11/18 05:05:25;;;;;;;21.13;7.28;;;7.40;94.10;;;;;;4974231;28;20042;-61
2021/11/18 05:07:53;;;;;;;18.55;7.60;;;7.30;94.00;;;;;;4961024;28;20031;-61
2021/11/18 05:10:22;;;;;;;21.80;7.38;;;7.40;93.90;;;;;;4983370;28;20400;-61
2021/11/18 05:12:49;;;;;;;26.27;8.20;;;7.30;93.90;;;;;;4965744;28;20034;-61
2021/11/18 05:15:17;;;;;;;23.67;6.53;;;7.30;94.00;;;;;;4976615;28;20034;-60
2021/11/18 05:17:45;;;;;;;25.80;7.70;;;7.30;94.10;;;;;;4963283;28;20031;-61
2021/11/18 05:20:11;;;;;;;18.05;6.78;;;7.30;94.10;;;;;;4968615;28;20045;-61
2021/11/18 05:22:39;;;;;;;19.48;8.00;;;7.30;94.10;;;;;;4990034;28;20034;-61
2021/11/18 05:25:09;;;;;;;19.70;7.15;;;7.30;94.10;;;;;;4977481;28;20034;-60
2021/11/18 05:27:35;;;;;;;33.13;7.63;;;7.40;94.10;;;;;;4968590;28;20042;-61
2021/11/18 05:30:01;;;;;;;18.98;7.47;;;7.40;94.40;;;;;;4970023;28;20104;-60
2021/11/18 05:32:27;;;;;;;21.90;6.63;;;7.40;94.00;;;;;;4972252;28;22050;-60
2021/11/18 05:34:59;;;;;;;19.20;6.80;;;7.50;93.90;;;;;;4986608;28;20747;-60
2021/11/18 05:37:26;;;;;;;22.77;6.53;;;7.50;93.80;;;;;;4971492;28;20023;-61
2021/11/18 05:39:52;;;;;;;19.23;5.95;;;7.40;93.80;;;;;;4973831;28;20026;-61
2021/11/18 05:42:19;;;;;;;15.82;7.03;;;7.30;93.90;;;;;;4993083;28;20030;-61
2021/11/18 05:44:49;;;;;;;20.15;6.72;;;7.30;93.90;;;;;;4974443;28;20529;-61
2021/11/18 05:47:17;;;;;;;26.45;7.32;;;7.30;94.00;;;;;;4971513;28;20081;-61
2021/11/18 05:49:43;;;;;;;21.23;7.45;;;7.20;94.10;;;;;;4972997;28;20030;-61
2021/11/18 05:52:20;;;;;;;27.45;7.50;;;7.20;94.10;;;;;;4976358;28;20737;-61
2021/11/18 05:54:46;;;;;;;19.73;7.18;;;7.20;94.10;;;;;;4974085;28;20134;-61
2021/11/18 05:57:12;;;;;;;21.13;6.45;;;7.20;94.30;;;;;;4983550;28;20027;-60
2021/11/18 05:59:38;;;;;;;18.30;5.90;;;7.30;94.40;;;;;;4966317;28;20043;-60
2021/11/18 06:02:03;;;;;;;22.35;6.93;;;7.30;94.20;;;;;;4978640;28;20031;-60
2021/11/18 06:04:29;;;;;;;14.77;5.22;;;7.30;94.10;;;;;;4973045;28;20577;-61
2021/11/18 06:07:02;;;;;;;21.60;5.85;;;7.30;94.00;;;;;;4970213;28;20053;-60
2021/11/18 06:09:28;;;;;;;16.58;5.55;;;7.30;94.20;;;;;;4990027;28;20058;-61
2021/11/18 06:11:54;;;;;;;16.38;5.88;;;7.30;94.30;;;;;;4967769;28;20686;-61
2021/11/18 06:14:20;;;;;;;20.85;6.03;;;7.30;94.20;;;;;;4966359;28;20039;-60
2021/11/18 06:16:48;;;;;;;14.77;5.85;;;7.20;94.20;;;;;;4989457;28;20018;-61
2021/11/18 06:19:14;;;;;;;23.40;6.55;;;7.20;94.10;;;;;;4992707;28;20038;-61
2021/11/18 06:21:44;;;;;;;17.30;6.45;;;7.20;94.30;;;;;;4976906;28;20114;-61
2021/11/18 06:24:12;;;;;;;21.40;6.03;;;7.20;94.40;;;;;;4967182;28;20541;-61
2021/11/18 06:26:49;;;;;;;16.60;5.18;;;7.30;94.30;;;;;;4968685;28;20045;-61
2021/11/18 06:29:21;;;;;;;14.57;5.47;;;7.50;94.30;;;;;;4963206;28;20057;-60
2021/11/18 06:31:54;;;;;;;14.77;5.13;;;7.60;94.10;;;;;;4976550;28;20026;-60
2021/11/18 06:34:21;;;;;;;18.35;6.40;;;7.60;93.90;;;;;;4968538;28;20038;-60
2021/11/18 06:36:47;;;;;;;20.83;5.95;;;7.60;93.90;;;;;;4987219;28;20040;-61
2021/11/18 06:39:15;;;;;;;15.32;5.93;;;7.60;93.90;;;;;;4978213;28;20113;-61
2021/11/18 06:41:42;;;;;;;21.35;7.15;;;7.70;93.90;;;;;;4970170;28;20089;-60
2021/11/18 06:44:09;;;;;;;21.98;5.95;;;7.80;93.70;;;;;;4968453;28;20675;-61
2021/11/18 06:46:36;;;;;;;20.55;6.05;;;7.90;93.60;;;;;;4961691;28;20040;-61
2021/11/18 06:49:03;;;;;;;15.05;5.07;;;7.90;93.30;;;;;;4967331;28;20035;-60
2021/11/18 06:51:29;;;;;;;16.95;5.55;;;7.90;93.20;;;;;;4971688;28;20041;-61
2021/11/18 06:53:58;;;;;;;14.43;6.22;;;7.90;93.10;;;;;;4981550;28;20034;-60
2021/11/18 06:56:28;;;;;;;12.32;4.97;;;8.00;93.10;;;;;;4972316;28;20038;-61
2021/11/18 06:58:55;;;;;;;18.55;5.95;;;8.00;93.00;;;;;;4990748;28;20533;-61
2021/11/18 07:01:24;;;;;;;13.48;4.50;;;8.00;93.00;;;;;;4968810;28;20031;-61
2021/11/18 07:03:51;;;;;;;19.80;6.53;;;8.00;93.10;;;;;;4972210;28;20037;-61
2021/11/18 07:06:21;;;;;;;17.58;4.88;;;8.10;93.00;;;;;;4973845;28;20176;-60
2021/11/18 07:08:47;;;;;;;18.20;6.57;;;8.20;92.90;;;;;;4970076;28;20543;-61
2021/11/18 07:11:16;;;;;;;15.18;5.20;;;8.30;92.60;;;;;;4985996;28;20814;-61
2021/11/18 07:13:43;;;;;;;15.57;4.95;;;8.50;92.50;;;;;;4991456;28;20062;-61
2021/11/18 07:16:12;;;;;;;23.38;5.70;;;8.60;92.30;;;;;;4974607;28;20157;-61
2021/11/18 07:18:39;;;;;;;15.98;5.55;;;8.80;92.20;;;;;;4965845;28;20552;-61
2021/11/18 07:21:06;;;;;;;16.35;4.78;;;8.90;91.90;;;;;;4982167;28;20133;-61
2021/11/18 07:23:32;;;;;;;19.17;5.20;;;9.00;91.50;;;;;;4961226;28;20030;-61
2021/11/18 07:26:00;;;;;;;14.70;4.82;;;9.00;91.30;;;;;;4971306;28;20026;-61
2021/11/18 07:28:30;;;;;;;22.58;4.68;;;9.10;91.40;;;;;;4986147;28;20517;-61
2021/11/18 07:30:57;;;;;;;17.48;5.53;;;9.10;91.10;;;;;;4974070;28;20058;-61
2021/11/18 07:33:24;;;;;;;18.20;6.45;;;9.20;91.10;;;;;;4976099;28;20112;-61
2021/11/18 07:35:53;;;;;;;16.13;5.10;;;9.30;90.90;;;;;;4988494;28;20093;-61
2021/11/18 07:38:20;;;;;;;17.95;5.68;;;9.40;90.80;;;;;;4967621;28;20084;-61
2021/11/18 07:40:46;;;;;;;20.00;6.10;;;9.50;90.50;;;;;;4990886;28;20121;-61
2021/11/18 07:43:22;;;;;;;19.65;5.15;;;9.60;90.50;;;;;;4971262;28;20118;-61
2021/11/18 07:45:54;;;;;;;20.13;6.00;;;9.60;90.40;;;;;;4976374;28;20049;-61
2021/11/18 07:48:42;;;;;;;24.15;6.13;;;9.60;90.50;;;;;;4984296;28;20045;-61
2021/11/18 07:51:10;;;;;;;14.30;5.60;;;9.70;90.50;;;;;;4982090;28;20075;-61
2021/11/18 07:53:36;;;;;;;19.00;5.82;;;9.70;90.50;;;;;;4966493;28;20117;-61
2021/11/18 07:56:02;;;;;;;19.70;5.15;;;9.70;90.60;;;;;;4987428;28;20038;-61
2021/11/18 07:58:32;;;;;;;23.58;6.97;;;9.70;90.70;;;;;;4976122;28;20030;-61
2021/11/18 08:00:59;;;;;;;25.25;5.93;;;9.70;90.70;;;;;;4975477;28;20046;-61
2021/11/18 08:03:30;;;;;;;22.65;5.88;;;9.80;90.80;;;;;;4987000;28;20034;-61
2021/11/18 08:06:14;;;;;;;25.67;6.30;;;9.90;90.70;;;;;;4990298;28;20045;-61
2021/11/18 08:08:45;;;;;;;15.50;5.60;;;10.00;90.40;;;;;;4979424;28;20080;-61
2021/11/18 08:11:18;;;;;;;18.58;5.35;;;10.00;90.40;;;;;;4989012;28;20135;-61
2021/11/18 08:13:45;;;;;;;19.58;5.40;;;10.00;90.50;;;;;;4969876;28;20470;-61
2021/11/18 08:16:12;;;;;;;21.30;5.47;;;10.00;90.40;;;;;;4973724;28;20082;-61
2021/11/18 08:18:39;;;;;;;20.35;6.20;;;9.90;90.60;;;;;;4975926;28;20114;-61
2021/11/18 08:21:06;;;;;;;12.63;4.70;;;9.90;90.70;;;;;;4969596;28;20064;-61
2021/11/18 08:23:33;;;;;;;16.20;5.45;;;10.00;90.60;;;;;;4992763;28;20034;-61
2021/11/18 08:26:04;;;;;;;16.17;5.30;;;10.10;90.60;;;;;;4961155;28;20562;-61
2021/11/18 08:28:31;;;;;;;18.77;5.65;;;10.20;90.30;;;;;;4976059;28;20518;-61
2021/11/18 08:30:57;;;;;;;30.00;11.05;;;10.20;90.20;;;;;;4967246;28;20162;-61
2021/11/18 08:33:24;;;;;;;18.88;6.75;;;10.30;90.20;;;;;;4973843;28;20415;-61
2021/11/18 08:35:49;;;;;;;20.33;6.65;;;10.40;90.20;;;;;;4965271;28;20038;-62
2021/11/18 08:38:18;;;;;;;19.08;7.15;;;10.50;90.10;;;;;;4964101;28;20227;-62
2021/11/18 08:41:03;;;;;;;17.95;6.82;;;10.60;89.70;;;;;;4987296;28;20033;-62
2021/11/18 08:43:30;;;;;;;16.50;5.97;;;10.50;88.90;;;;;;4972847;28;20057;-63
2021/11/18 08:45:58;;;;;;;21.63;5.80;;;10.50;90.10;;;;;;4972365;28;20038;-62
2021/11/18 08:48:25;;;;;;;20.17;6.40;;;10.50;89.60;;;;;;4978817;28;20062;-61
2021/11/18 08:50:52;;;;;;;24.13;6.45;;;10.50;89.80;;;;;;4986164;28;20039;-62
2021/11/18 08:53:23;;;;;;;21.88;6.70;;;10.60;89.20;;;;;;4977842;28;20037;-61
2021/11/18 08:55:49;;;;;;;19.88;7.28;;;10.70;88.80;;;;;;4966053;28;20031;-62
2021/11/18 08:58:20;;;;;;;18.48;5.93;;;10.80;88.70;;;;;;4967804;28;20144;-61
2021/11/18 09:01:09;;;;;;;18.67;6.28;;;10.80;88.10;;;;;;4988740;28;20097;-61
2021/11/18 09:03:41;;;;;;;17.38;6.72;;;11.00;88.10;;;;;;4978048;28;20034;-61
2021/11/18 09:06:11;;;;;;;15.73;6.68;;;11.10;87.60;;;;;;4974071;28;20045;-61
2021/11/18 09:08:38;;;;;;;18.90;6.78;;;11.10;87.30;;;;;;4987661;28;20041;-60
2021/11/18 09:11:09;;;;;;;21.70;6.50;;;11.20;86.90;;;;;;4971249;28;20043;-61
2021/11/18 09:13:43;;;;;;;23.75;8.15;;;11.20;87.30;;;;;;4983107;28;20161;-61
2021/11/18 09:16:10;;;;;;;21.92;6.55;;;11.20;87.30;;;;;;4971221;28;20042;-61
2021/11/18 09:18:40;;;;;;;19.30;7.35;;;11.30;87.30;;;;;;4985050;28;20034;-61
2021/11/18 09:21:08;;;;;;;24.85;6.80;;;11.40;87.20;;;;;;4975053;28;20030;-61
2021/11/18 09:23:42;;;;;;;24.08;5.88;;;11.40;86.70;;;;;;4976521;28;20078;-61
2021/11/18 09:26:09;;;;;;;22.73;7.05;;;11.40;86.70;;;;;;4967698;28;20090;-61
2021/11/18 09:28:37;;;;;;;18.60;6.30;;;11.40;86.60;;;;;;4971134;28;20130;-61
2021/11/18 09:31:28;;;;;;;22.42;6.82;;;11.40;87.00;;;;;;4959949;28;20105;-61
2021/11/18 09:33:55;;;;;;;20.63;7.47;;;11.40;86.80;;;;;;4991726;28;20905;-61
2021/11/18 09:36:23;;;;;;;23.77;8.38;;;11.50;86.60;;;;;;4970294;28;20038;-62
2021/11/18 09:38:50;;;;;;;17.52;6.75;;;11.60;86.50;;;;;;4973092;28;20121;-61
2021/11/18 09:41:27;;;;;;;19.50;6.38;;;11.60;86.10;;;;;;4971214;28;20038;-65
2021/11/18 09:44:12;;;;;;;23.75;6.75;;;11.70;86.20;;;;;;4967914;28;20569;-62
2021/11/18 09:46:48;;;;;;;21.83;7.15;;;11.70;86.00;;;;;;4971678;28;20039;-62
2021/11/18 09:49:39;;;;;;;22.25;6.97;;;11.70;86.20;;;;;;4964816;28;20396;-62
2021/11/18 09:52:27;;;;;;;22.27;7.22;;;11.80;85.70;;;;;;4966134;28;20035;-62
2021/11/18 09:55:08;;;;;;;29.02;8.50;;;12.00;85.30;;;;;;4969270;28;20145;-62
2021/11/18 09:58:04;;;;;;;22.08;7.30;;;12.10;84.90;;;;;;4965501;28;20034;-62
2021/11/18 10:01:12;;;;;;;22.58;6.32;;;12.30;84.40;;;;;;4963716;28;20022;-62
2021/11/18 10:04:12;;;;;;;21.92;7.25;;;12.50;83.10;;;;;;4943298;28;20608;-62
2021/11/18 10:06:39;;;;;;;22.98;6.78;;;12.80;82.60;;;;;;4966148;28;20054;-62
2021/11/18 10:09:17;;;;;;;21.20;6.68;;;13.00;80.90;;;;;;4977774;28;20050;-62
2021/11/18 10:12:13;;;;;;;22.73;6.88;;;13.10;80.70;;;;;;4967515;28;20593;-61
2021/11/18 10:14:56;;;;;;;16.08;6.55;;;13.10;80.20;;;;;;4965409;28;20031;-61
2021/11/18 10:17:36;;;;;;;19.88;7.10;;;13.30;80.00;;;;;;4981483;28;20027;-61
2021/11/18 10:20:15;;;;;;;18.17;6.47;;;13.30;79.40;;;;;;4970728;28;20034;-61
2021/11/18 10:22:48;;;;;;;21.73;8.63;;;13.10;79.60;;;;;;4969881;28;20826;-61
2021/11/18 10:25:19;;;;;;;22.90;9.30;;;13.10;80.20;;;;;;4966619;28;20478;-62
2021/11/18 10:27:56;;;;;;;21.80;7.40;;;12.90;80.30;;;;;;4975354;28;20727;-60
2021/11/18 10:30:33;;;;;;;23.75;7.78;;;12.70;80.90;;;;;;4969093;28;20446;-62
2021/11/18 10:33:08;;;;;;;17.90;6.70;;;12.50;82.00;;;;;;4970432;28;20031;-62
2021/11/18 10:35:37;;;;;;;26.10;8.02;;;12.30;83.00;;;;;;4976981;28;20038;-60
2021/11/18 10:38:21;;;;;;;20.55;7.65;;;12.20;83.60;;;;;;4967817;28;20745;-62
2021/11/18 10:41:24;;;;;;;22.63;8.15;;;12.50;83.50;;;;;;4971384;28;20587;-62
2021/11/18 10:44:17;;;;;;;23.20;7.97;;;12.60;81.90;;;;;;4969578;28;20026;-62
2021/11/18 10:46:57;;;;;;;21.83;7.45;;;12.60;81.40;;;;;;4972004;28;20038;-63
2021/11/18 10:49:58;;;;;;;18.48;7.78;;;12.40;82.40;;;;;;4973851;28;20030;-62
2021/11/18 10:52:35;;;;;;;26.15;8.60;;;12.40;82.30;;;;;;4975869;28;20076;-63
2021/11/18 10:55:04;;;;;;;22.70;7.45;;;12.30;82.90;;;;;;4979035;28;20046;-63
2021/11/18 10:57:32;;;;;;;26.92;7.70;;;12.40;83.30;;;;;;4971885;28;20474;-61
2021/11/18 11:00:43;;;;;;;22.00;7.45;;;12.60;82.90;;;;;;4971723;28;20829;-62
2021/11/18 11:03:40;;;;;;;25.70;7.68;;;12.50;82.30;;;;;;4951116;28;20053;-62
2021/11/18 11:06:20;;;;;;;19.58;7.72;;;12.40;82.70;;;;;;4972609;28;20467;-62
2021/11/18 11:08:48;;;;;;;22.98;7.28;;;12.50;83.00;;;;;;4966196;28;20034;-62
2021/11/18 11:11:36;;;;;;;20.95;7.90;;;12.60;82.40;;;;;;4960548;28;20038;-62
2021/11/18 11:14:26;;;;;;;21.73;7.05;;;12.60;82.30;;;;;;4962606;28;20035;-62
2021/11/18 11:17:30;;;;;;;23.70;7.28;;;12.70;82.00;;;;;;4968172;28;20435;-62
2021/11/18 11:20:02;;;;;;;20.75;6.65;;;12.60;81.60;;;;;;4967102;28;20118;-63
2021/11/18 11:22:37;;;;;;;19.23;7.60;;;12.70;81.90;;;;;;4973784;28;20034;-63
2021/11/18 11:25:06;;;;;;;21.95;7.00;;;12.70;81.80;;;;;;4981482;28;20154;-60
2021/11/18 11:28:05;;;;;;;19.40;6.38;;;12.70;81.70;;;;;;4973762;28;20037;-62
2021/11/18 11:30:54;;;;;;;28.25;9.95;;;12.70;81.30;;;;;;4972940;28;20054;-65
2021/11/18 11:33:30;;;;;;;22.52;7.03;;;12.60;81.70;;;;;;4967760;28;20034;-63
2021/11/18 11:36:18;;;;;;;21.90;8.15;;;12.40;82.30;;;;;;4970931;28;20050;-63
2021/11/18 11:38:52;;;;;;;20.05;6.50;;;12.40;82.80;;;;;;4976371;28;20034;-65
2021/11/18 11:41:47;;;;;;;20.30;9.05;;;12.40;83.40;;;;;;4974373;28;20171;-63
2021/11/18 11:44:40;;;;;;;23.17;7.10;;;12.40;83.20;;;;;;4968042;28;20133;-64
2021/11/18 11:47:13;;;;;;;27.92;8.10;;;12.40;83.10;;;;;;4973623;28;20101;-64
2021/11/18 11:50:02;;;;;;;20.38;7.25;;;12.40;83.20;;;;;;4968715;28;20081;-63
2021/11/18 11:52:43;;;;;;;17.42;5.55;;;12.40;83.30;;;;;;4969501;28;20097;-63
2021/11/18 11:55:28;;;;;;;23.73;6.70;;;12.50;83.30;;;;;;4964834;28;20146;-63
2021/11/18 11:57:54;;;;;;;19.35;6.95;;;12.40;82.80;;;;;;4963824;28;20034;-64
2021/11/18 12:00:57;;;;;;;25.42;7.00;;;12.40;82.90;;;;;;4968599;28;20042;-65
2021/11/18 12:04:01;;;;;;;19.48;6.43;;;12.40;82.90;;;;;;4969095;28;20026;-65
2021/11/18 12:06:39;;;;;;;26.13;7.47;;;12.50;82.40;;;;;;4975755;28;20398;-64
2021/11/18 12:09:16;;;;;;;21.48;6.85;;;12.60;82.10;;;;;;4974066;28;20062;-65
2021/11/18 12:11:54;;;;;;;23.15;7.40;;;12.80;81.60;;;;;;4969433;28;20514;-64
2021/11/18 12:14:36;;;;;;;19.67;6.30;;;12.90;81.20;;;;;;4960157;28;20077;-64
2021/11/18 12:17:17;;;;;;;18.50;6.20;;;12.90;80.80;;;;;;4975396;28;20050;-65
2021/11/18 12:20:07;;;;;;;20.38;5.95;;;12.80;81.20;;;;;;4966326;28;20039;-65
2021/11/18 12:22:38;;;;;;;17.98;5.60;;;12.90;80.70;;;;;;4972574;28;20026;-66
2021/11/18 12:25:28;;;;;;;15.45;4.80;;;13.00;80.60;;;;;;4964081;28;20035;-71
2021/11/18 12:28:23;;;;;;;17.65;5.82;;;13.00;80.00;;;;;;4965160;28;20049;-64
2021/11/18 12:31:07;;;;;;;16.63;5.93;;;12.80;80.00;;;;;;4954355;28;20084;-65
2021/11/18 12:33:44;;;;;;;19.42;7.05;;;12.90;80.60;;;;;;4971561;28;20034;-67
2021/11/18 12:36:24;;;;;;;23.42;6.75;;;12.80;80.60;;;;;;4973803;28;20767;-64
2021/11/18 12:39:09;;;;;;;18.17;5.18;;;12.80;80.50;;;;;;4969869;28;20043;-65
2021/11/18 12:41:44;;;;;;;21.17;6.78;;;12.80;80.60;;;;;;4972920;28;20038;-65
2021/11/18 12:44:41;;;;;;;31.20;11.02;;;12.80;80.00;;;;;;4985324;28;20487;-65
2021/11/18 12:47:11;;;;;;;21.77;7.13;;;12.90;79.70;;;;;;4968916;28;20585;-65
2021/11/18 12:49:53;;;;;;;21.17;5.70;;;12.80;80.10;;;;;;4969976;28;20215;-65
2021/11/18 12:52:37;;;;;;;21.40;6.90;;;12.90;79.60;;;;;;4976735;28;20526;-65
2021/11/18 12:55:11;;;;;;;20.20;6.38;;;12.90;79.20;;;;;;4968488;28;20039;-65
2021/11/18 12:57:53;;;;;;;20.02;5.57;;;12.90;79.40;;;;;;4971546;28;20042;-65
2021/11/18 13:00:37;;;;;;;17.92;5.85;;;12.90;79.30;;;;;;4974283;28;20059;-64
2021/11/18 13:03:05;;;;;;;16.42;5.15;;;12.80;79.20;;;;;;4963150;28;20513;-65
2021/11/18 13:05:31;;;;;;;16.38;6.03;;;12.70;79.70;;;;;;4973777;28;20038;-64
2021/11/18 13:08:08;;;;;;;20.25;5.43;;;12.50;80.10;;;;;;4972554;28;20761;-65